Time;durP1;ratioP1;P1;durP2;ratioP2;P2;SDS_P1;SDS_P2;PMS_P1;PMS_P2;Temp;Humidity;BMP_temperature;BMP_pressure;BME280_temperature;BME280_humidity;BME280_pressure;Samples;Min_cycle;Max_cycle;Signal;HPM_P1;HPM_P2
2022/08/01 00:01:24;;;;;;;24.33;12.95;;;18.10;99.90;;;;;;5053899;28;20521;-68
2022/08/01 00:03:50;;;;;;;19.67;12.52;;;18.10;99.90;;;;;;5059624;28;20085;-67
2022/08/01 00:06:16;;;;;;;20.50;12.57;;;18.10;99.90;;;;;;5056449;28;20377;-67
2022/08/01 00:08:41;;;;;;;19.85;12.55;;;18.10;99.90;;;;;;5066671;28;20064;-67
2022/08/01 00:11:08;;;;;;;17.00;12.50;;;18.20;99.90;;;;;;5060160;28;20128;-67
2022/08/01 00:13:34;;;;;;;37.08;15.05;;;18.10;99.90;;;;;;5064107;28;20472;-68
2022/08/01 00:16:00;;;;;;;22.58;13.45;;;18.10;99.90;;;;;;5055987;28;20033;-69
2022/08/01 00:18:26;;;;;;;17.40;12.35;;;18.10;99.90;;;;;;5064272;28;20497;-69
2022/08/01 00:20:51;;;;;;;18.38;12.27;;;18.10;99.90;;;;;;5056108;28;20033;-69
2022/08/01 00:23:17;;;;;;;15.75;12.05;;;18.10;99.90;;;;;;5057570;28;20140;-69
2022/08/01 00:25:43;;;;;;;19.73;12.55;;;18.10;99.90;;;;;;5055714;28;20043;-69
2022/08/01 00:28:09;;;;;;;15.68;11.40;;;18.10;99.90;;;;;;5057593;28;20422;-69
2022/08/01 00:30:35;;;;;;;16.15;11.57;;;18.10;99.90;;;;;;5054881;28;20047;-68
2022/08/01 00:33:01;;;;;;;13.38;10.95;;;18.10;99.90;;;;;;5063760;28;20036;-68
2022/08/01 00:35:27;;;;;;;17.23;9.63;;;18.10;99.90;;;;;;5060426;28;20140;-68
2022/08/01 00:37:53;;;;;;;13.55;9.20;;;18.00;99.90;;;;;;5061402;28;20115;-69
2022/08/01 00:40:19;;;;;;;13.95;9.35;;;18.00;99.90;;;;;;5060124;28;20128;-69
2022/08/01 00:42:44;;;;;;;13.93;8.90;;;18.00;99.90;;;;;;5056163;28;20036;-67
2022/08/01 00:45:11;;;;;;;15.05;8.95;;;18.00;99.90;;;;;;5059738;28;20098;-67
2022/08/01 00:47:37;;;;;;;11.65;8.32;;;18.00;99.90;;;;;;5058868;28;20045;-66
2022/08/01 00:50:04;;;;;;;11.52;7.43;;;18.00;99.90;;;;;;5059477;28;20052;-66
2022/08/01 00:52:30;;;;;;;11.82;6.75;;;18.00;99.90;;;;;;5059678;28;20770;-67
2022/08/01 00:54:56;;;;;;;6.50;5.28;;;18.00;99.90;;;;;;5060652;28;20120;-67
2022/08/01 00:57:22;;;;;;;5.75;5.15;;;17.90;99.90;;;;;;5060905;28;20662;-67
2022/08/01 00:59:48;;;;;;;9.50;5.78;;;17.90;99.90;;;;;;5062081;28;20117;-68
2022/08/01 01:02:14;;;;;;;8.27;5.25;;;17.80;99.90;;;;;;5065725;28;20472;-68
2022/08/01 01:04:39;;;;;;;7.03;4.57;;;17.80;99.90;;;;;;5059749;28;20033;-68
2022/08/01 01:07:21;;;;;;;9.32;5.57;;;17.80;99.90;;;;;;5058767;28;20067;-68
2022/08/01 01:10:06;;;;;;;11.02;5.18;;;17.80;99.90;;;;;;5057463;28;20146;-68
2022/08/01 01:12:45;;;;;;;8.57;4.85;;;17.80;99.90;;;;;;5061003;28;20102;-68
2022/08/01 01:15:22;;;;;;;7.10;4.88;;;17.80;99.90;;;;;;5059373;28;20040;-68
2022/08/01 01:17:56;;;;;;;11.25;5.82;;;17.80;99.90;;;;;;5055005;28;20068;-68
2022/08/01 01:20:30;;;;;;;9.75;5.80;;;17.80;99.90;;;;;;5059319;28;20049;-68
2022/08/01 01:23:22;;;;;;;8.68;6.45;;;17.80;99.90;;;;;;5065028;28;20147;-68
2022/08/01 01:25:50;;;;;;;8.80;6.50;;;17.80;99.90;;;;;;5066549;28;20040;-69
2022/08/01 01:28:53;;;;;;;10.68;7.28;;;17.80;99.90;;;;;;5066070;28;20658;-69
2022/08/01 01:31:21;;;;;;;13.93;8.35;;;17.80;99.90;;;;;;5069917;28;20090;-69
2022/08/01 01:33:48;;;;;;;12.68;7.65;;;17.80;99.90;;;;;;5067206;28;20048;-69
2022/08/01 01:36:16;;;;;;;25.90;9.70;;;17.80;99.90;;;;;;5064634;28;20045;-68
2022/08/01 01:38:44;;;;;;;13.57;8.57;;;17.80;99.90;;;;;;5068216;28;20037;-68
2022/08/01 01:41:12;;;;;;;18.58;9.38;;;17.80;99.90;;;;;;5065826;28;20115;-68
2022/08/01 01:43:42;;;;;;;12.55;8.57;;;17.80;99.90;;;;;;5064743;28;20052;-68
2022/08/01 01:46:10;;;;;;;7.13;6.10;;;17.90;99.90;;;;;;5064938;28;20045;-68
2022/08/01 01:48:37;;;;;;;8.70;5.90;;;17.80;99.90;;;;;;5065345;28;20548;-68
2022/08/01 01:51:04;;;;;;;8.65;5.18;;;17.80;99.90;;;;;;5066334;28;20153;-68
2022/08/01 01:53:33;;;;;;;6.93;4.50;;;17.70;99.90;;;;;;5063756;28;20052;-69
2022/08/01 01:56:01;;;;;;;5.03;4.10;;;17.70;99.90;;;;;;5048743;28;20045;-69
2022/08/01 01:58:28;;;;;;;7.03;4.55;;;17.70;99.90;;;;;;5058918;28;20499;-69
2022/08/01 02:00:56;;;;;;;4.68;3.83;;;17.70;99.90;;;;;;5059488;28;20064;-69
2022/08/01 02:03:24;;;;;;;4.28;3.88;;;17.70;99.90;;;;;;5067756;28;20051;-69
2022/08/01 02:05:53;;;;;;;6.15;4.32;;;17.60;99.90;;;;;;5053238;28;20520;-69
2022/08/01 02:08:19;;;;;;;6.45;4.20;;;17.70;99.90;;;;;;5062156;28;20102;-67
2022/08/01 02:11:17;;;;;;;4.25;3.58;;;17.60;99.90;;;;;;5063420;28;20452;-66
2022/08/01 02:13:34;;;;;;;7.78;3.78;;;17.60;99.90;;;;;;5065673;28;20122;-66
2022/08/01 02:16:01;;;;;;;4.28;3.88;;;17.60;99.90;;;;;;5062114;28;20436;-66
2022/08/01 02:18:27;;;;;;;5.93;4.07;;;17.60;99.90;;;;;;5068131;28;20040;-66
2022/08/01 02:20:55;;;;;;;9.27;4.55;;;17.60;99.90;;;;;;5059447;28;20037;-69
2022/08/01 02:23:23;;;;;;;6.65;4.32;;;17.60;99.90;;;;;;5062082;28;20044;-69
2022/08/01 02:25:52;;;;;;;8.18;4.90;;;17.70;99.90;;;;;;5071217;28;20055;-69
2022/08/01 02:28:27;;;;;;;7.20;4.38;;;17.60;99.90;;;;;;5068091;28;20071;-67
2022/08/01 02:31:00;;;;;;;6.30;4.80;;;17.60;99.90;;;;;;5068173;28;20047;-67
2022/08/01 02:33:39;;;;;;;7.95;4.85;;;17.60;99.90;;;;;;5049522;28;20114;-68
2022/08/01 02:36:07;;;;;;;9.35;5.28;;;17.60;99.90;;;;;;5064149;28;20511;-68
2022/08/01 02:38:36;;;;;;;7.60;5.40;;;17.60;99.90;;;;;;5064392;28;20129;-67
2022/08/01 02:41:08;;;;;;;8.43;5.20;;;17.60;99.90;;;;;;5058358;28;20037;-68
2022/08/01 02:43:38;;;;;;;7.10;5.00;;;17.60;99.90;;;;;;5064236;28;20801;-68
2022/08/01 02:46:05;;;;;;;7.43;5.18;;;17.60;99.90;;;;;;5059326;28;20040;-68
2022/08/01 02:48:36;;;;;;;9.52;6.25;;;17.60;99.90;;;;;;5060300;28;20041;-68
2022/08/01 02:51:06;;;;;;;8.15;5.32;;;17.60;99.90;;;;;;5054911;28;20481;-68
2022/08/01 02:53:36;;;;;;;6.93;5.68;;;17.70;99.90;;;;;;5053475;28;20052;-68
2022/08/01 02:56:05;;;;;;;8.18;4.25;;;17.60;99.90;;;;;;5070573;28;20066;-67
2022/08/01 02:58:33;;;;;;;5.30;3.97;;;17.60;99.90;;;;;;5062659;28;20098;-67
2022/08/01 03:00:59;;;;;;;7.03;2.55;;;17.50;99.90;;;;;;5063222;28;20082;-67
2022/08/01 03:03:25;;;;;;;6.63;2.63;;;17.50;99.90;;;;;;5067152;28;20173;-66
2022/08/01 03:05:52;;;;;;;4.40;2.30;;;17.50;99.90;;;;;;5061894;28;20715;-66
2022/08/01 03:08:20;;;;;;;4.82;2.40;;;17.40;99.90;;;;;;5060911;28;20115;-67
2022/08/01 03:10:46;;;;;;;7.13;2.20;;;17.40;99.90;;;;;;5055530;28;20079;-67
2022/08/01 03:13:14;;;;;;;9.95;2.10;;;17.30;99.90;;;;;;5055135;28;20045;-67
2022/08/01 03:15:42;;;;;;;5.57;1.90;;;17.30;99.90;;;;;;5038080;28;20045;-67
2022/08/01 03:18:10;;;;;;;7.25;2.08;;;17.30;99.90;;;;;;5056504;28;20067;-67
2022/08/01 03:20:36;;;;;;;11.35;2.50;;;17.30;99.90;;;;;;5062677;28;20182;-67
2022/08/01 03:23:05;;;;;;;9.48;2.40;;;17.30;99.90;;;;;;5065428;28;20041;-67
2022/08/01 03:25:34;;;;;;;9.20;1.90;;;17.20;99.90;;;;;;5066043;28;20037;-67
2022/08/01 03:28:04;;;;;;;6.60;2.13;;;17.20;99.90;;;;;;5058157;28;20049;-67
2022/08/01 03:30:32;;;;;;;9.73;2.05;;;17.20;99.90;;;;;;5062928;28;20488;-68
2022/08/01 03:32:59;;;;;;;5.93;1.90;;;17.20;99.90;;;;;;5067118;28;20118;-67
2022/08/01 03:35:34;;;;;;;6.20;1.98;;;17.20;99.90;;;;;;5062134;28;20094;-67
2022/08/01 03:38:01;;;;;;;5.63;1.60;;;17.20;99.90;;;;;;5052504;28;20137;-67
2022/08/01 03:40:38;;;;;;;6.43;1.67;;;17.10;99.90;;;;;;5061562;28;20044;-67
2022/08/01 03:43:07;;;;;;;6.50;1.50;;;17.20;99.90;;;;;;5059056;28;20044;-67
2022/08/01 03:45:44;;;;;;;8.00;1.83;;;17.10;99.90;;;;;;5065147;28;20056;-67
2022/08/01 03:48:14;;;;;;;7.05;1.85;;;17.10;99.90;;;;;;5064700;28;20052;-67
2022/08/01 03:50:45;;;;;;;7.20;1.77;;;17.10;99.90;;;;;;5065703;28;20422;-67
2022/08/01 03:53:12;;;;;;;7.85;1.83;;;17.10;99.90;;;;;;5060976;28;20373;-68
2022/08/01 03:55:40;;;;;;;8.00;1.88;;;17.10;99.90;;;;;;5060463;28;20129;-68
2022/08/01 03:58:08;;;;;;;6.55;1.70;;;17.10;99.90;;;;;;5055359;28;20044;-68
2022/08/01 04:00:38;;;;;;;6.53;2.20;;;17.10;99.90;;;;;;5058286;28;20151;-68
2022/08/01 04:03:06;;;;;;;6.20;1.88;;;17.10;99.90;;;;;;5058229;28;20435;-68
2022/08/01 04:05:32;;;;;;;5.05;2.08;;;17.10;99.90;;;;;;5057824;28;20538;-68
2022/08/01 04:07:59;;;;;;;5.90;2.40;;;17.10;99.90;;;;;;5058186;28;20051;-68
2022/08/01 04:10:25;;;;;;;9.63;2.38;;;17.10;99.90;;;;;;5063353;28;20033;-68
2022/08/01 04:12:51;;;;;;;12.18;2.25;;;17.10;99.90;;;;;;5061834;28;20741;-68
2022/08/01 04:15:18;;;;;;;6.50;1.98;;;17.10;99.90;;;;;;5063804;28;20028;-68
2022/08/01 04:17:43;;;;;;;8.30;2.50;;;17.10;99.90;;;;;;5062705;28;20048;-68
2022/08/01 04:20:10;;;;;;;10.15;2.55;;;17.10;99.90;;;;;;5065790;28;20380;-68
2022/08/01 04:22:36;;;;;;;6.82;2.38;;;17.10;99.90;;;;;;5063792;28;20418;-68
2022/08/01 04:25:09;;;;;;;10.32;2.80;;;17.00;99.90;;;;;;5054062;28;20060;-68
2022/08/01 04:27:38;;;;;;;8.45;2.63;;;17.00;99.90;;;;;;5060376;28;20153;-68
2022/08/01 04:30:05;;;;;;;10.02;2.50;;;17.00;99.90;;;;;;5058357;28;20052;-70
2022/08/01 04:32:35;;;;;;;9.70;2.50;;;17.00;99.90;;;;;;5061641;28;20049;-68
2022/08/01 04:35:07;;;;;;;13.30;3.20;;;17.00;99.90;;;;;;5063630;28;20039;-68
2022/08/01 04:37:36;;;;;;;10.85;3.10;;;17.10;99.90;;;;;;5061450;28;20044;-68
2022/08/01 04:40:04;;;;;;;12.00;2.58;;;17.00;99.90;;;;;;5062658;28;20063;-68
2022/08/01 04:42:31;;;;;;;15.13;3.30;;;17.00;99.90;;;;;;5061826;28;20468;-68
2022/08/01 04:44:58;;;;;;;8.60;2.90;;;17.00;99.90;;;;;;5044262;28;20056;-68
2022/08/01 04:47:25;;;;;;;11.82;3.63;;;17.00;99.90;;;;;;5061963;28;20051;-68
2022/08/01 04:49:51;;;;;;;11.48;3.10;;;16.90;99.90;;;;;;5052080;28;20107;-68
2022/08/01 04:52:20;;;;;;;12.90;2.78;;;16.90;99.90;;;;;;5056223;28;20075;-68
2022/08/01 04:54:46;;;;;;;12.88;3.38;;;17.00;99.90;;;;;;5057361;28;20041;-68
2022/08/01 04:57:12;;;;;;;15.55;3.90;;;17.00;99.90;;;;;;5060567;28;20051;-68
2022/08/01 04:59:43;;;;;;;9.13;3.20;;;16.90;99.90;;;;;;5059737;28;20479;-68
2022/08/01 05:02:13;;;;;;;12.23;3.05;;;16.90;99.90;;;;;;5064405;28;20049;-68
2022/08/01 05:04:40;;;;;;;9.05;2.95;;;16.90;99.90;;;;;;5060999;28;20139;-68
2022/08/01 05:07:06;;;;;;;15.10;3.67;;;16.90;99.90;;;;;;5066219;28;20036;-68
2022/08/01 05:09:32;;;;;;;11.95;3.90;;;16.90;99.90;;;;;;5061700;28;20510;-68
2022/08/01 05:12:00;;;;;;;11.30;3.08;;;16.90;99.90;;;;;;5056776;28;20056;-68
2022/08/01 05:14:26;;;;;;;17.55;4.32;;;16.90;99.90;;;;;;5064015;28;20048;-68
2022/08/01 05:16:52;;;;;;;11.23;3.08;;;16.90;99.90;;;;;;5058482;28;20040;-68
2022/08/01 05:19:19;;;;;;;11.32;4.40;;;16.90;99.90;;;;;;5063437;28;20119;-69
2022/08/01 05:21:44;;;;;;;10.43;2.78;;;16.90;99.90;;;;;;5059915;28;20044;-68
2022/08/01 05:24:10;;;;;;;12.20;3.63;;;16.90;99.90;;;;;;5062131;28;20040;-68
2022/08/01 05:26:36;;;;;;;12.88;3.67;;;16.90;99.90;;;;;;5063428;28;20048;-68
2022/08/01 05:29:02;;;;;;;8.95;2.78;;;16.90;99.90;;;;;;5063577;28;20044;-68
2022/08/01 05:31:28;;;;;;;16.30;3.65;;;16.80;99.90;;;;;;5056982;28;20033;-68
2022/08/01 05:33:53;;;;;;;11.18;3.05;;;16.80;99.90;;;;;;5059368;28;20865;-68
2022/08/01 05:36:19;;;;;;;12.45;3.15;;;16.80;99.90;;;;;;5038421;28;20047;-68
2022/08/01 05:38:45;;;;;;;14.10;3.30;;;16.80;99.90;;;;;;5057309;28;20040;-68
2022/08/01 05:41:11;;;;;;;11.98;3.28;;;16.80;99.90;;;;;;5059061;28;20051;-68
2022/08/01 05:43:36;;;;;;;12.00;2.92;;;16.80;99.90;;;;;;5064820;28;20033;-68
2022/08/01 05:46:02;;;;;;;12.30;2.60;;;16.80;99.90;;;;;;5042059;28;20065;-68
2022/08/01 05:48:28;;;;;;;14.48;3.88;;;16.90;99.90;;;;;;5061242;28;20048;-68
2022/08/01 05:50:54;;;;;;;11.23;3.05;;;16.80;99.90;;;;;;5062519;28;20101;-70
2022/08/01 05:53:20;;;;;;;16.02;3.22;;;16.80;99.90;;;;;;5061633;28;20051;-69
2022/08/01 05:55:46;;;;;;;12.25;2.80;;;16.90;99.90;;;;;;5059715;28;20041;-69
2022/08/01 05:58:11;;;;;;;11.30;3.08;;;16.90;99.90;;;;;;5057820;28;20526;-69
2022/08/01 06:00:37;;;;;;;13.57;3.40;;;16.90;99.90;;;;;;5052746;28;20033;-69
2022/08/01 06:03:03;;;;;;;9.68;2.80;;;16.90;99.90;;;;;;5064155;28;20126;-69
2022/08/01 06:05:28;;;;;;;12.75;2.88;;;16.90;99.90;;;;;;5055927;28;20387;-69
2022/08/01 06:07:54;;;;;;;11.13;2.65;;;16.90;99.90;;;;;;5055057;28;20497;-69
2022/08/01 06:10:20;;;;;;;11.05;2.88;;;16.90;99.90;;;;;;5059659;28;20047;-69
2022/08/01 06:12:45;;;;;;;11.32;2.83;;;17.00;99.90;;;;;;5062571;28;20136;-69
2022/08/01 06:15:11;;;;;;;12.82;3.05;;;16.90;99.90;;;;;;5061234;28;20045;-69
2022/08/01 06:17:38;;;;;;;10.70;2.72;;;17.00;99.90;;;;;;5064593;28;20485;-69
2022/08/01 06:20:06;;;;;;;15.82;2.53;;;17.00;99.90;;;;;;5061608;28;20405;-69
2022/08/01 06:22:31;;;;;;;14.93;3.35;;;17.00;99.90;;;;;;5062103;28;20067;-69
2022/08/01 06:24:57;;;;;;;19.60;3.30;;;17.10;99.90;;;;;;5059939;28;20033;-69
2022/08/01 06:27:24;;;;;;;13.93;3.17;;;17.10;99.90;;;;;;5055787;28;20102;-69
2022/08/01 06:29:53;;;;;;;16.30;3.33;;;17.10;99.90;;;;;;5063565;28;20705;-69
2022/08/01 06:32:19;;;;;;;14.23;2.97;;;17.10;99.90;;;;;;5061031;28;20461;-69
2022/08/01 06:34:45;;;;;;;14.70;2.80;;;17.10;99.90;;;;;;5065737;28;20047;-69
2022/08/01 06:37:12;;;;;;;14.90;2.78;;;17.10;99.90;;;;;;5064716;28;20045;-69
2022/08/01 06:39:38;;;;;;;13.00;2.80;;;17.10;99.90;;;;;;5062509;28;20049;-69
2022/08/01 06:42:04;;;;;;;15.02;3.03;;;17.10;99.90;;;;;;5061598;28;20044;-69
2022/08/01 06:44:29;;;;;;;15.48;3.00;;;17.10;99.90;;;;;;5058172;28;20412;-69
2022/08/01 06:46:58;;;;;;;12.77;3.03;;;17.10;99.90;;;;;;5060361;28;20074;-69
2022/08/01 06:49:24;;;;;;;16.42;3.67;;;17.10;99.90;;;;;;5059714;28;20118;-69
2022/08/01 06:51:49;;;;;;;14.98;2.58;;;17.10;99.90;;;;;;5059440;28;20089;-69
2022/08/01 06:54:16;;;;;;;18.40;2.80;;;17.10;99.90;;;;;;5055756;28;20566;-69
2022/08/01 06:56:42;;;;;;;18.27;3.33;;;17.00;99.90;;;;;;5063999;28;20665;-69
2022/08/01 06:59:08;;;;;;;17.25;3.53;;;17.00;99.90;;;;;;5060382;28;20067;-69
2022/08/01 07:01:33;;;;;;;16.45;2.85;;;17.00;99.90;;;;;;5066839;28;20045;-69
2022/08/01 07:03:59;;;;;;;17.42;3.17;;;17.00;99.90;;;;;;5063905;28;20040;-69
2022/08/01 07:06:25;;;;;;;18.10;3.22;;;17.00;99.90;;;;;;5065410;28;20173;-69
2022/08/01 07:08:54;;;;;;;15.13;3.75;;;17.00;99.90;;;;;;5067257;28;20385;-69
2022/08/01 07:11:21;;;;;;;18.77;2.78;;;16.90;99.90;;;;;;5062676;28;20517;-69
2022/08/01 07:13:47;;;;;;;12.70;2.97;;;16.90;99.90;;;;;;5054915;28;20534;-69
2022/08/01 07:16:14;;;;;;;13.18;3.08;;;17.00;99.90;;;;;;5047536;28;20056;-69
2022/08/01 07:18:40;;;;;;;20.52;3.42;;;16.90;99.90;;;;;;5060242;28;20040;-69
2022/08/01 07:21:06;;;;;;;17.60;3.67;;;17.00;99.90;;;;;;5061374;28;20059;-69
2022/08/01 07:23:31;;;;;;;22.20;3.75;;;17.00;99.90;;;;;;5066828;28;20033;-69
2022/08/01 07:25:57;;;;;;;13.27;2.72;;;17.00;99.90;;;;;;5060828;28;20110;-69
2022/08/01 07:28:23;;;;;;;22.58;3.42;;;17.10;99.90;;;;;;5060830;28;20049;-69
2022/08/01 07:30:48;;;;;;;14.55;2.78;;;17.00;99.90;;;;;;5061083;28;20039;-69
2022/08/01 07:33:14;;;;;;;23.00;3.78;;;17.00;99.90;;;;;;5058478;28;20040;-69
2022/08/01 07:35:40;;;;;;;15.50;3.20;;;17.00;99.90;;;;;;5054359;28;20068;-70
2022/08/01 07:38:09;;;;;;;12.32;3.03;;;17.00;99.90;;;;;;5056775;28;20468;-70
2022/08/01 07:40:34;;;;;;;16.40;3.03;;;17.10;99.90;;;;;;5056566;28;20033;-70
2022/08/01 07:43:00;;;;;;;13.00;2.70;;;17.10;99.90;;;;;;5059270;28;20051;-70
2022/08/01 07:45:26;;;;;;;14.57;2.65;;;17.20;99.90;;;;;;5043554;28;20473;-70
2022/08/01 07:47:52;;;;;;;18.83;3.38;;;17.20;99.90;;;;;;5064961;28;20041;-70
2022/08/01 07:50:18;;;;;;;18.45;3.20;;;17.30;99.90;;;;;;5062859;28;20393;-70
2022/08/01 07:52:44;;;;;;;17.52;2.92;;;17.30;99.90;;;;;;5065219;28;20076;-70
2022/08/01 07:55:11;;;;;;;13.70;2.72;;;17.40;99.90;;;;;;5063796;28;20469;-70
2022/08/01 07:57:38;;;;;;;17.77;3.13;;;17.50;99.90;;;;;;5066837;28;20214;-70
2022/08/01 08:00:05;;;;;;;11.20;2.65;;;17.50;99.90;;;;;;5062141;28;20044;-70
2022/08/01 08:02:31;;;;;;;16.20;2.70;;;17.70;99.90;;;;;;5041254;28;20055;-70
2022/08/01 08:04:57;;;;;;;13.60;2.45;;;17.80;99.90;;;;;;5064663;28;20037;-70
2022/08/01 08:07:23;;;;;;;14.88;3.30;;;17.90;99.90;;;;;;5060310;28;20705;-70
2022/08/01 08:09:48;;;;;;;13.15;2.95;;;17.90;99.90;;;;;;5046649;28;20134;-70
2022/08/01 08:12:14;;;;;;;13.60;2.85;;;18.00;99.90;;;;;;5061287;28;20138;-70
2022/08/01 08:14:40;;;;;;;13.82;3.08;;;18.20;99.90;;;;;;5062469;28;20032;-70
2022/08/01 08:17:06;;;;;;;14.30;2.50;;;18.40;99.90;;;;;;5061455;28;20119;-70
2022/08/01 08:19:33;;;;;;;14.52;2.40;;;18.60;99.90;;;;;;5061100;28;20068;-70
2022/08/01 08:21:59;;;;;;;18.88;2.67;;;18.80;99.90;;;;;;5059345;28;20041;-69
2022/08/01 08:24:26;;;;;;;15.15;2.38;;;18.90;99.90;;;;;;5058879;28;20496;-69
2022/08/01 08:26:58;;;;;;;13.68;2.60;;;18.90;99.90;;;;;;5055176;28;20056;-69
2022/08/01 08:29:25;;;;;;;12.40;2.53;;;19.00;99.90;;;;;;5057272;28;20496;-69
2022/08/01 08:31:54;;;;;;;16.02;2.15;;;19.10;99.90;;;;;;5064735;28;20063;-69
2022/08/01 08:34:20;;;;;;;16.58;2.80;;;19.30;99.90;;;;;;5062719;28;20041;-69
2022/08/01 08:36:46;;;;;;;10.45;2.40;;;19.50;99.90;;;;;;5059986;28;20067;-69
2022/08/01 08:39:12;;;;;;;12.48;2.10;;;19.90;99.90;;;;;;5063400;28;20036;-70
2022/08/01 08:41:38;;;;;;;12.95;2.30;;;20.30;99.90;;;;;;5063555;28;20569;-70
2022/08/01 08:44:08;;;;;;;12.02;1.98;;;20.40;99.90;;;;;;5058650;28;20041;-70
2022/08/01 08:46:40;;;;;;;10.50;1.90;;;20.40;99.90;;;;;;5060102;28;20036;-70
2022/08/01 08:49:07;;;;;;;15.02;2.72;;;20.50;99.90;;;;;;5058479;28;20044;-70
2022/08/01 08:51:37;;;;;;;11.25;1.92;;;20.60;99.90;;;;;;5055458;28;20094;-70
2022/08/01 08:54:05;;;;;;;12.27;2.40;;;21.00;99.90;;;;;;5059859;28;20048;-71
2022/08/01 08:56:34;;;;;;;17.05;2.75;;;21.60;99.90;;;;;;5063552;28;20076;-71
2022/08/01 08:59:02;;;;;;;10.65;1.73;;;22.00;99.90;;;;;;5060359;28;20048;-71
2022/08/01 09:01:28;;;;;;;10.50;1.80;;;22.30;99.90;;;;;;5065588;28;20048;-71
2022/08/01 09:03:53;;;;;;;12.45;2.15;;;22.70;99.90;;;;;;5059860;28;20476;-70
2022/08/01 09:06:19;;;;;;;7.53;1.80;;;22.80;99.90;;;;;;5060081;28;20097;-70
2022/08/01 09:08:46;;;;;;;10.20;1.67;;;22.40;99.90;;;;;;5053650;28;20401;-70
2022/08/01 09:11:12;;;;;;;14.25;2.10;;;22.60;99.90;;;;;;5058835;28;20132;-72
2022/08/01 09:13:38;;;;;;;9.88;1.50;;;22.60;99.90;;;;;;5051358;28;20095;-72
2022/08/01 09:16:05;;;;;;;8.63;1.88;;;22.40;99.90;;;;;;5058243;28;20680;-72
2022/08/01 09:18:40;;;;;;;12.20;2.15;;;22.30;99.90;;;;;;5039398;28;20426;-72
2022/08/01 09:21:06;;;;;;;9.25;1.88;;;22.40;99.90;;;;;;5063788;28;20040;-72
2022/08/01 09:23:33;;;;;;;13.52;1.80;;;22.50;99.90;;;;;;5059744;28;20042;-72
2022/08/01 09:25:59;;;;;;;9.98;1.98;;;22.50;99.90;;;;;;5062593;28;20098;-72
2022/08/01 09:28:29;;;;;;;7.50;1.70;;;22.70;99.80;;;;;;5059182;28;20033;-73
2022/08/01 09:30:58;;;;;;;9.15;1.70;;;22.80;99.40;;;;;;5059088;28;20431;-73
2022/08/01 09:33:24;;;;;;;6.35;1.25;;;23.00;99.20;;;;;;5052898;28;20083;-73
2022/08/01 09:35:57;;;;;;;7.70;1.35;;;23.20;97.40;;;;;;5054470;28;20061;-73
2022/08/01 09:38:28;;;;;;;9.98;1.67;;;23.40;93.20;;;;;;5053581;28;20484;-74
2022/08/01 09:40:59;;;;;;;8.48;1.65;;;23.50;95.40;;;;;;5053734;28;20055;-74
2022/08/01 09:43:30;;;;;;;6.15;1.42;;;23.70;95.10;;;;;;5054338;28;20040;-74
2022/08/01 09:45:56;;;;;;;8.93;1.30;;;23.70;92.90;;;;;;5055812;28;20115;-74
2022/08/01 09:48:22;;;;;;;6.70;1.42;;;23.70;94.30;;;;;;5066637;28;20032;-74
2022/08/01 09:50:50;;;;;;;5.63;1.42;;;23.50;92.30;;;;;;5065672;28;20051;-75
2022/08/01 09:53:17;;;;;;;7.97;1.10;;;23.20;93.30;;;;;;5064773;28;20411;-75
2022/08/01 09:55:44;;;;;;;5.72;1.00;;;23.20;91.60;;;;;;5067978;28;20446;-75
2022/08/01 09:58:11;;;;;;;11.30;1.67;;;23.00;90.80;;;;;;5061213;28;20539;-75
2022/08/01 10:00:39;;;;;;;6.28;1.13;;;23.00;91.40;;;;;;5068086;28;20040;-75
2022/08/01 10:03:21;;;;;;;7.85;1.10;;;23.00;92.50;;;;;;5066144;28;20112;-75
2022/08/01 10:05:47;;;;;;;6.78;1.15;;;23.30;90.50;;;;;;5056434;28;20079;-77
2022/08/01 10:08:13;;;;;;;6.80;1.67;;;23.40;92.60;;;;;;5065715;28;20088;-76
2022/08/01 10:10:39;;;;;;;6.10;1.55;;;23.30;91.50;;;;;;5061025;28;20052;-77
2022/08/01 10:13:07;;;;;;;8.38;1.48;;;23.40;91.90;;;;;;5067801;28;20033;-77
2022/08/01 10:15:33;;;;;;;7.78;1.13;;;23.70;91.40;;;;;;5061191;28;20079;-76
2022/08/01 10:18:02;;;;;;;7.45;1.25;;;23.70;88.50;;;;;;5063608;28;20079;-76
2022/08/01 10:20:31;;;;;;;8.57;1.20;;;23.80;87.30;;;;;;5060311;28;20059;-76
2022/08/01 10:23:04;;;;;;;6.47;1.10;;;23.70;85.30;;;;;;5060048;28;20040;-76
2022/08/01 10:25:36;;;;;;;6.20;1.10;;;23.60;85.80;;;;;;5061840;28;20044;-75
2022/08/01 10:28:17;;;;;;;7.20;1.05;;;23.60;84.50;;;;;;5045846;28;20044;-75
2022/08/01 10:30:44;;;;;;;6.78;1.20;;;23.50;84.10;;;;;;5043163;28;20088;-75
2022/08/01 10:33:10;;;;;;;7.13;1.48;;;23.50;85.50;;;;;;5062477;28;20439;-76
2022/08/01 10:35:39;;;;;;;7.57;0.93;;;23.60;84.10;;;;;;5045993;28;20040;-76
2022/08/01 10:38:05;;;;;;;7.90;1.30;;;23.70;81.40;;;;;;5065017;28;20119;-76
2022/08/01 10:40:32;;;;;;;6.28;0.85;;;23.60;78.30;;;;;;5049385;28;20127;-76
2022/08/01 10:42:58;;;;;;;7.60;1.00;;;23.40;80.60;;;;;;5064992;28;20101;-76
2022/08/01 10:45:28;;;;;;;9.68;1.55;;;23.60;83.90;;;;;;5054463;28;20055;-76
2022/08/01 10:48:19;;;;;;;5.75;1.10;;;23.70;83.00;;;;;;5060631;28;20035;-76
2022/08/01 10:50:48;;;;;;;5.30;0.90;;;23.70;80.20;;;;;;5064365;28;20052;-75
2022/08/01 10:53:20;;;;;;;9.45;1.30;;;23.90;81.80;;;;;;5060197;28;20044;-74
2022/08/01 10:56:00;;;;;;;6.85;1.02;;;23.80;79.10;;;;;;5054273;28;20079;-74
2022/08/01 10:58:40;;;;;;;7.13;1.13;;;23.60;76.40;;;;;;5044374;28;20390;-76
2022/08/01 11:01:32;;;;;;;5.78;1.27;;;23.40;78.40;;;;;;5063556;28;20048;-76
2022/08/01 11:04:02;;;;;;;7.95;1.10;;;23.70;76.50;;;;;;5063940;28;20516;-75
2022/08/01 11:06:33;;;;;;;5.47;1.00;;;23.80;78.20;;;;;;5047263;28;20451;-75
2022/08/01 11:09:20;;;;;;;6.88;1.02;;;23.90;76.40;;;;;;5058161;28;20055;-75
2022/08/01 11:11:58;;;;;;;5.38;0.88;;;24.10;72.20;;;;;;5040424;28;20235;-76
2022/08/01 11:14:24;;;;;;;7.85;1.17;;;24.30;72.80;;;;;;5056101;28;20473;-75
2022/08/01 11:16:50;;;;;;;3.50;0.73;;;24.40;72.90;;;;;;5043000;28;20040;-77
2022/08/01 11:19:15;;;;;;;4.68;0.88;;;24.60;73.40;;;;;;5042802;28;20105;-76
2022/08/01 11:21:56;;;;;;;7.25;1.30;;;24.80;71.00;;;;;;5062527;28;20043;-75
2022/08/01 11:24:43;;;;;;;4.95;0.88;;;24.80;69.60;;;;;;5052518;28;20036;-75
2022/08/01 11:27:27;;;;;;;5.47;0.82;;;24.50;66.60;;;;;;5044092;28;20036;-75
2022/08/01 11:30:08;;;;;;;6.15;1.00;;;24.40;69.00;;;;;;5062832;28;20028;-75
2022/08/01 11:32:55;;;;;;;3.92;0.68;;;24.60;70.10;;;;;;5065546;28;20045;-75
2022/08/01 11:35:26;;;;;;;5.50;0.90;;;24.60;68.20;;;;;;5083063;28;20204;-75
2022/08/01 11:37:56;;;;;;;6.75;1.20;;;24.60;71.10;;;;;;5055478;28;20041;-75
2022/08/01 11:40:23;;;;;;;6.57;1.10;;;24.60;69.90;;;;;;5062572;28;20037;-69
2022/08/01 11:42:50;;;;;;;5.50;0.75;;;24.40;71.20;;;;;;5056729;28;20098;-67
2022/08/01 11:45:16;;;;;;;5.57;0.82;;;24.30;70.70;;;;;;5062898;28;20041;-68
2022/08/01 11:47:51;;;;;;;6.25;0.77;;;23.90;67.10;;;;;;5063071;28;20043;-68
2022/08/01 11:50:46;;;;;;;4.88;0.90;;;23.70;68.60;;;;;;5047700;28;20105;-68
2022/08/01 11:53:15;;;;;;;6.82;1.00;;;23.60;69.20;;;;;;5064021;28;20050;-65
2022/08/01 11:55:49;;;;;;;4.90;0.80;;;23.80;70.70;;;;;;5061789;28;20064;-75
2022/08/01 11:58:20;;;;;;;6.30;0.80;;;23.90;71.00;;;;;;5057511;28;20095;-74
2022/08/01 12:00:57;;;;;;;6.45;1.15;;;24.00;69.80;;;;;;5056029;28;20036;-74
2022/08/01 12:03:27;;;;;;;6.72;1.00;;;24.10;68.70;;;;;;5040461;28;20076;-73
2022/08/01 12:05:53;;;;;;;4.22;1.02;;;23.90;69.90;;;;;;5060035;28;20115;-74
2022/08/01 12:08:32;;;;;;;4.50;1.02;;;23.90;71.50;;;;;;5041467;28;20129;-74
2022/08/01 12:10:59;;;;;;;4.90;0.98;;;23.60;70.40;;;;;;5069258;28;20044;-74
2022/08/01 12:13:26;;;;;;;5.25;1.02;;;23.50;69.80;;;;;;5047915;28;20132;-73
2022/08/01 12:15:52;;;;;;;5.78;1.35;;;23.60;69.90;;;;;;5062469;28;20574;-73
2022/08/01 12:18:18;;;;;;;7.25;1.33;;;23.80;72.40;;;;;;5041757;28;20131;-73
2022/08/01 12:20:46;;;;;;;5.20;0.95;;;23.90;67.80;;;;;;5065654;28;20121;-73
2022/08/01 12:23:15;;;;;;;6.68;1.10;;;24.10;69.20;;;;;;5055835;28;20047;-75
2022/08/01 12:25:43;;;;;;;5.10;0.90;;;23.90;68.20;;;;;;5057354;28;20043;-75
2022/08/01 12:28:12;;;;;;;5.78;0.77;;;23.80;69.30;;;;;;5039522;28;20396;-75
2022/08/01 12:30:39;;;;;;;4.57;0.88;;;23.60;71.10;;;;;;5040733;28;20054;-74
2022/08/01 12:33:07;;;;;;;6.05;1.17;;;23.30;69.00;;;;;;5048404;28;20036;-74
2022/08/01 12:35:36;;;;;;;4.38;0.80;;;23.40;70.80;;;;;;5066128;28;20106;-74
2022/08/01 12:38:16;;;;;;;6.07;0.80;;;23.70;69.80;;;;;;5045587;28;20041;-74
2022/08/01 12:40:44;;;;;;;4.72;0.77;;;23.80;67.70;;;;;;5063762;28;20059;-74
2022/08/01 12:43:16;;;;;;;6.03;1.23;;;24.20;66.90;;;;;;5058743;28;20548;-75
2022/08/01 12:45:43;;;;;;;7.05;0.85;;;24.50;66.50;;;;;;5052074;28;20515;-75
2022/08/01 12:48:14;;;;;;;5.90;0.90;;;24.90;67.40;;;;;;5049308;28;20075;-74